createdAt,value
2017-11-26T00:01:50.237Z,2.40
2017-11-26T00:04:17.788Z,2.40
2017-11-26T00:06:46.332Z,2.40
2017-11-26T00:09:13.878Z,2.40
2017-11-26T00:11:41.428Z,2.40
2017-11-26T00:14:09.962Z,2.40
2017-11-26T00:16:37.506Z,2.40
2017-11-26T00:19:05.048Z,2.50
2017-11-26T00:21:33.400Z,2.50
2017-11-26T00:24:00.945Z,2.50
2017-11-26T00:26:29.379Z,2.50
2017-11-26T00:28:57.144Z,2.50
2017-11-26T00:31:24.704Z,2.40
2017-11-26T00:33:52.248Z,2.40
2017-11-26T00:36:19.844Z,2.30
2017-11-26T00:38:47.400Z,2.30
2017-11-26T00:41:14.953Z,2.30
2017-11-26T00:43:42.664Z,2.20
2017-11-26T00:46:10.216Z,2.20
2017-11-26T00:48:37.755Z,2.20
2017-11-26T00:51:06.113Z,2.10
2017-11-26T00:53:33.664Z,2.10
2017-11-26T00:56:01.211Z,2.10
2017-11-26T00:58:28.909Z,2.20
2017-11-26T01:00:56.455Z,2.20
2017-11-26T01:03:24.000Z,2.20
2017-11-26T01:05:52.548Z,2.20
2017-11-26T01:08:20.096Z,2.20
2017-11-26T01:10:47.644Z,2.20
2017-11-26T01:13:16.187Z,2.10
2017-11-26T01:15:43.740Z,2.10
2017-11-26T01:18:11.295Z,2.10
2017-11-26T01:20:38.897Z,2.10
2017-11-26T01:23:06.446Z,2.10
2017-11-26T01:25:33.997Z,2.10
2017-11-26T01:28:01.612Z,2.00
2017-11-26T01:30:29.157Z,2.00
2017-11-26T01:32:56.717Z,2.00
2017-11-26T01:35:24.502Z,2.00
2017-11-26T01:37:52.051Z,2.00
2017-11-26T01:40:20.372Z,1.90
2017-11-26T01:42:47.960Z,1.90
2017-11-26T01:45:15.517Z,1.90
2017-11-26T01:47:43.068Z,1.90
2017-11-26T01:50:10.664Z,2.70
2017-11-26T01:52:38.213Z,1.80
2017-11-26T01:55:05.756Z,1.80
2017-11-26T01:57:33.362Z,1.90
2017-11-26T02:00:00.909Z,1.90
2017-11-26T02:02:29.221Z,1.80
2017-11-26T02:04:56.822Z,1.80
2017-11-26T02:07:24.369Z,1.70
2017-11-26T02:09:51.921Z,1.80
2017-11-26T02:12:19.512Z,1.80
2017-11-26T02:14:47.064Z,1.80
2017-11-26T02:17:14.616Z,1.70
2017-11-26T02:19:42.981Z,1.80
2017-11-26T02:22:10.536Z,1.80
2017-11-26T02:24:38.082Z,1.80
2017-11-26T02:27:05.679Z,1.80
2017-11-26T02:29:33.228Z,1.80
2017-11-26T02:32:12.715Z,1.80
2017-11-26T02:34:52.068Z,1.80
2017-11-26T02:37:19.665Z,1.80
2017-11-26T02:39:47.979Z,1.80
2017-11-26T02:42:15.532Z,1.80
2017-11-26T02:44:43.892Z,1.70
2017-11-26T02:47:11.440Z,1.70
2017-11-26T02:49:38.997Z,1.80
2017-11-26T02:52:06.602Z,1.80
2017-11-26T02:54:34.159Z,1.70
2017-11-26T02:57:01.713Z,1.80
2017-11-26T02:59:29.441Z,1.80
2017-11-26T03:01:56.988Z,1.90
2017-11-26T03:04:24.540Z,1.90
2017-11-26T03:06:52.144Z,1.90
2017-11-26T03:09:19.696Z,2.60
2017-11-26T03:11:47.244Z,2.00
2017-11-26T03:14:14.832Z,2.00
2017-11-26T03:16:42.380Z,2.00
2017-11-26T03:19:09.932Z,2.00
2017-11-26T03:21:37.754Z,2.00
2017-11-26T03:24:05.310Z,2.00
2017-11-26T03:26:32.865Z,2.00
2017-11-26T03:29:00.560Z,1.90
2017-11-26T03:31:28.104Z,2.00
2017-11-26T03:33:55.651Z,2.00
2017-11-26T03:36:24.016Z,2.00
2017-11-26T03:38:51.567Z,2.00
2017-11-26T03:41:19.119Z,2.00
2017-11-26T03:43:46.922Z,2.00
2017-11-26T03:46:14.484Z,2.00
2017-11-26T03:48:42.280Z,1.90
2017-11-26T03:51:09.965Z,1.90
2017-11-26T03:53:37.509Z,1.90
2017-11-26T03:56:05.057Z,1.90
2017-11-26T03:58:32.648Z,1.90
2017-11-26T04:01:00.203Z,1.90
2017-11-26T04:03:27.753Z,1.90
2017-11-26T04:05:55.352Z,1.80
2017-11-26T04:08:22.916Z,1.80
2017-11-26T04:10:50.460Z,1.80
2017-11-26T04:13:18.050Z,1.70
2017-11-26T04:15:45.600Z,1.70
2017-11-26T04:18:13.908Z,1.80
2017-11-26T04:20:41.616Z,1.70
2017-11-26T04:23:09.172Z,1.80
2017-11-26T04:25:36.720Z,1.80
2017-11-26T04:28:04.543Z,1.80
2017-11-26T04:30:32.097Z,1.80
2017-11-26T04:32:59.650Z,1.80
2017-11-26T04:35:27.452Z,1.80
2017-11-26T04:37:55.000Z,1.80
2017-11-26T04:40:22.556Z,1.80
2017-11-26T04:42:50.264Z,1.80
2017-11-26T04:45:17.816Z,1.80
2017-11-26T04:47:45.362Z,1.90
2017-11-26T04:50:13.729Z,2.00
2017-11-26T04:52:41.280Z,2.00
2017-11-26T04:55:08.832Z,2.10
2017-11-26T04:57:36.421Z,2.10
2017-11-26T05:00:03.973Z,2.20
2017-11-26T05:02:31.528Z,2.30
2017-11-26T05:04:59.301Z,2.40
2017-11-26T05:07:26.860Z,2.40
2017-11-26T05:09:54.412Z,2.40
2017-11-26T05:12:22.970Z,2.50
2017-11-26T05:14:50.526Z,2.50
2017-11-26T05:17:18.077Z,2.50
2017-11-26T05:19:45.674Z,2.50
2017-11-26T05:22:13.230Z,2.60
2017-11-26T05:24:40.777Z,2.60
2017-11-26T05:27:08.528Z,2.70
2017-11-26T05:29:36.080Z,2.70
2017-11-26T05:32:03.634Z,2.80
2017-11-26T05:34:31.229Z,2.70
2017-11-26T05:36:59.551Z,2.80
2017-11-26T05:39:27.864Z,2.80
2017-11-26T05:41:55.636Z,2.80
2017-11-26T05:44:23.193Z,2.80
2017-11-26T05:46:50.760Z,2.80
2017-11-26T05:49:19.121Z,2.90
2017-11-26T05:51:46.676Z,2.90
2017-11-26T05:54:14.249Z,2.90
2017-11-26T05:56:41.841Z,3.00
2017-11-26T05:59:09.390Z,3.00
2017-11-26T06:01:36.944Z,3.00
2017-11-26T06:04:04.530Z,3.00
2017-11-26T06:06:32.076Z,3.00
2017-11-26T06:08:59.624Z,3.00
2017-11-26T06:11:27.228Z,3.10
2017-11-26T06:13:54.773Z,3.00
2017-11-26T06:16:22.324Z,3.00
2017-11-26T06:18:50.682Z,3.10
2017-11-26T06:21:18.244Z,3.00
2017-11-26T06:23:45.791Z,3.10
2017-11-26T06:26:13.384Z,3.00
2017-11-26T06:28:40.932Z,3.00
2017-11-26T06:31:08.486Z,3.00
2017-11-26T06:33:36.200Z,3.00
2017-11-26T06:36:03.743Z,3.00
2017-11-26T06:38:31.288Z,3.00
2017-11-26T06:40:59.744Z,3.00
2017-11-26T06:43:27.295Z,3.00
2017-11-26T06:45:54.852Z,3.00
2017-11-26T06:48:22.552Z,3.00
2017-11-26T06:50:50.100Z,3.00
2017-11-26T06:53:17.657Z,3.10
2017-11-26T06:55:45.469Z,3.10
2017-11-26T06:58:13.030Z,3.10
2017-11-26T07:00:40.581Z,3.10
2017-11-26T07:03:08.385Z,3.10
2017-11-26T07:05:35.928Z,3.10
2017-11-26T07:08:03.491Z,3.10
2017-11-26T07:10:31.312Z,3.10
2017-11-26T07:12:58.867Z,3.10
2017-11-26T07:15:26.613Z,3.40
2017-11-26T07:17:54.224Z,3.60
2017-11-26T07:20:21.781Z,3.70
2017-11-26T07:22:49.328Z,3.60
2017-11-26T07:25:17.032Z,3.50
2017-11-26T07:27:44.652Z,3.50
2017-11-26T07:30:12.973Z,3.40
2017-11-26T07:32:40.559Z,3.40
2017-11-26T07:35:08.124Z,3.40
2017-11-26T07:37:35.680Z,3.40
2017-11-26T07:40:03.391Z,3.40
2017-11-26T07:42:30.937Z,3.50
2017-11-26T07:44:58.491Z,3.70
2017-11-26T07:47:26.108Z,4.00
2017-11-26T07:49:53.656Z,4.20
2017-11-26T07:52:21.199Z,4.20
2017-11-26T07:54:49.561Z,4.00
2017-11-26T07:57:17.121Z,4.00
2017-11-26T07:59:44.671Z,3.90
2017-11-26T08:02:12.285Z,3.80
2017-11-26T08:04:39.832Z,3.80
2017-11-26T08:07:07.381Z,3.80
2017-11-26T08:09:35.116Z,3.70
2017-11-26T08:12:03.428Z,3.70
2017-11-26T08:14:30.977Z,3.70
2017-11-26T08:16:59.323Z,3.70
2017-11-26T08:19:26.873Z,3.70
2017-11-26T08:21:54.420Z,3.70
2017-11-26T08:24:22.509Z,3.70
2017-11-26T08:26:50.057Z,3.70
2017-11-26T08:29:18.369Z,3.70
2017-11-26T08:31:45.972Z,3.70
2017-11-26T08:34:13.536Z,3.70
2017-11-26T08:36:41.091Z,3.80
2017-11-26T08:39:08.773Z,3.80
2017-11-26T08:41:36.326Z,3.80
2017-11-26T08:44:03.885Z,3.80
2017-11-26T08:46:31.710Z,3.80
2017-11-26T08:48:59.267Z,3.80
2017-11-26T08:51:26.828Z,3.90
2017-11-26T08:53:54.571Z,3.90
2017-11-26T08:56:22.922Z,3.90
2017-11-26T08:58:50.468Z,3.90
2017-11-26T09:01:18.061Z,4.00
2017-11-26T09:03:45.606Z,4.00
2017-11-26T09:09:25.981Z,4.10
2017-11-26T09:11:54.335Z,4.10
2017-11-26T09:14:21.889Z,4.10
2017-11-26T09:16:49.435Z,4.10
2017-11-26T09:19:17.035Z,4.10
2017-11-26T09:21:44.581Z,4.20
2017-11-26T09:24:12.129Z,4.20
2017-11-26T09:26:40.681Z,4.20
2017-11-26T09:29:08.238Z,4.20
2017-11-26T09:31:35.781Z,4.20
2017-11-26T09:34:03.488Z,4.20
2017-11-26T09:36:31.036Z,4.20
2017-11-26T09:38:58.584Z,4.20
2017-11-26T09:41:26.941Z,4.20
2017-11-26T09:43:54.492Z,4.20
2017-11-26T09:46:22.037Z,4.20
2017-11-26T09:48:49.633Z,4.30
2017-11-26T09:51:17.185Z,4.30
2017-11-26T09:53:44.732Z,4.30
2017-11-26T09:56:13.268Z,4.40
2017-11-26T09:58:40.817Z,4.40
2017-11-26T10:01:08.369Z,4.40
2017-11-26T10:03:35.964Z,4.40
2017-11-26T10:06:03.546Z,4.50
2017-11-26T10:08:31.092Z,4.50
2017-11-26T10:10:58.769Z,4.50
2017-11-26T10:13:26.313Z,4.60
2017-11-26T10:15:54.628Z,4.60
2017-11-26T10:18:22.254Z,4.60
2017-11-26T10:20:49.813Z,4.60
2017-11-26T10:23:17.364Z,4.60
2017-11-26T10:25:45.057Z,4.60
2017-11-26T10:28:12.617Z,4.70
2017-11-26T10:30:40.172Z,4.70
2017-11-26T10:33:07.769Z,4.70
2017-11-26T10:35:35.311Z,4.70
2017-11-26T10:38:02.864Z,4.70
2017-11-26T10:40:30.460Z,4.80
2017-11-26T10:42:58.004Z,4.70
2017-11-26T10:45:26.320Z,4.70
2017-11-26T10:47:54.000Z,4.70
2017-11-26T10:50:21.545Z,4.70
2017-11-26T10:52:49.095Z,4.70
2017-11-26T10:55:17.561Z,4.70
2017-11-26T10:57:45.104Z,4.70
2017-11-26T11:00:12.693Z,4.70
2017-11-26T11:02:40.469Z,4.70
2017-11-26T11:05:08.027Z,4.70
2017-11-26T11:07:35.575Z,4.70
2017-11-26T11:10:03.189Z,4.80
2017-11-26T11:12:32.249Z,4.80
2017-11-26T11:14:59.800Z,4.80
2017-11-26T11:17:28.192Z,4.80
2017-11-26T11:19:55.724Z,4.80
2017-11-26T11:22:23.277Z,4.80
2017-11-26T11:24:50.867Z,4.80
2017-11-26T11:27:18.412Z,4.80
2017-11-26T11:29:45.964Z,4.80
2017-11-26T11:32:13.671Z,4.80
2017-11-26T11:34:41.225Z,4.90
2017-11-26T11:37:08.780Z,4.90
2017-11-26T11:39:36.470Z,4.90
2017-11-26T11:42:04.029Z,4.90
2017-11-26T11:44:31.576Z,4.90
2017-11-26T11:47:00.040Z,4.90
2017-11-26T11:49:27.585Z,4.90
2017-11-26T11:51:55.146Z,4.90
2017-11-26T11:54:22.736Z,4.90
2017-11-26T11:56:50.279Z,4.90
2017-11-26T11:59:17.827Z,4.90
2017-11-26T12:01:46.372Z,4.90
2017-11-26T12:04:13.924Z,4.90
2017-11-26T12:06:41.477Z,5.00
2017-11-26T12:09:09.188Z,5.00
2017-11-26T12:11:36.742Z,5.00
2017-11-26T12:14:04.295Z,5.00
2017-11-26T12:16:31.890Z,5.00
2017-11-26T12:18:59.448Z,5.00
2017-11-26T12:21:27.006Z,5.10
2017-11-26T12:23:54.740Z,5.10
2017-11-26T12:26:23.052Z,5.10
2017-11-26T12:28:51.367Z,5.10
2017-11-26T12:31:18.965Z,5.10
2017-11-26T12:33:46.509Z,5.20
2017-11-26T12:36:14.104Z,5.20
2017-11-26T12:38:41.702Z,5.20
2017-11-26T12:41:09.256Z,5.20
2017-11-26T12:43:36.810Z,5.20
2017-11-26T12:46:04.413Z,5.30
2017-11-26T12:48:31.972Z,5.30
2017-11-26T12:50:59.532Z,5.30
2017-11-26T12:53:27.148Z,5.30
2017-11-26T12:55:54.701Z,5.30
2017-11-26T12:58:22.253Z,5.40
2017-11-26T13:00:49.840Z,5.40
2017-11-26T13:03:17.402Z,5.40
2017-11-26T13:05:44.936Z,5.40
2017-11-26T13:08:12.529Z,5.40
2017-11-26T13:10:40.094Z,5.40
2017-11-26T13:13:07.654Z,5.40
2017-11-26T13:15:35.348Z,5.50
2017-11-26T13:18:02.893Z,5.50
2017-11-26T13:20:30.441Z,5.50
2017-11-26T13:22:58.134Z,5.50
2017-11-26T13:25:25.676Z,5.60
2017-11-26T13:27:53.233Z,5.50
2017-11-26T13:30:20.821Z,5.60
2017-11-26T13:32:48.373Z,5.60
2017-11-26T13:35:15.917Z,5.50
2017-11-26T13:37:43.609Z,5.50
2017-11-26T13:40:11.152Z,5.50
2017-11-26T13:42:38.700Z,5.60
2017-11-26T13:45:07.048Z,5.60
2017-11-26T13:47:34.594Z,5.60
2017-11-26T13:50:02.141Z,5.60
2017-11-26T13:52:29.749Z,5.70
2017-11-26T13:54:57.294Z,5.70
2017-11-26T13:57:24.840Z,5.60
2017-11-26T13:59:53.200Z,5.60
2017-11-26T14:02:20.787Z,5.60
2017-11-26T14:04:48.337Z,5.70
2017-11-26T14:07:16.105Z,5.70
2017-11-26T14:09:43.750Z,5.60
2017-11-26T14:12:11.317Z,5.60
2017-11-26T14:14:38.934Z,5.60
2017-11-26T14:17:06.492Z,5.60
2017-11-26T14:19:34.035Z,5.60
2017-11-26T14:22:01.637Z,5.60
2017-11-26T14:24:29.185Z,5.60
2017-11-26T14:26:56.732Z,5.60
2017-11-26T14:29:24.448Z,5.60
2017-11-26T14:31:51.993Z,5.60
2017-11-26T14:34:19.536Z,5.70
2017-11-26T14:36:47.888Z,5.70
2017-11-26T14:39:15.432Z,5.70
2017-11-26T14:41:42.982Z,5.60
2017-11-26T14:44:10.568Z,5.70
2017-11-26T14:46:38.122Z,5.70
2017-11-26T14:49:05.669Z,5.70
2017-11-26T14:51:34.030Z,5.70
2017-11-26T14:54:01.584Z,5.70
2017-11-26T14:56:29.132Z,5.70
2017-11-26T14:58:56.732Z,5.70
2017-11-26T15:01:24.282Z,5.70
2017-11-26T15:03:51.829Z,5.70
2017-11-26T15:06:20.280Z,5.70
2017-11-26T15:08:47.837Z,5.60
2017-11-26T15:11:15.389Z,5.60
2017-11-26T15:13:42.986Z,5.60
2017-11-26T15:16:10.529Z,5.60
2017-11-26T15:18:38.089Z,5.60
2017-11-26T15:21:05.802Z,5.60
2017-11-26T15:23:33.348Z,5.50
2017-11-26T15:26:00.896Z,5.60
2017-11-26T15:28:29.253Z,5.60
2017-11-26T15:30:56.819Z,5.60
2017-11-26T15:33:24.368Z,5.60
2017-11-26T15:35:51.966Z,5.60
2017-11-26T15:38:19.544Z,5.60
2017-11-26T15:40:47.097Z,5.60
2017-11-26T15:43:14.697Z,5.60
2017-11-26T15:45:43.004Z,5.60
2017-11-26T15:48:11.312Z,5.70
2017-11-26T15:50:38.997Z,5.60
2017-11-26T15:53:06.545Z,5.60
2017-11-26T15:55:34.098Z,5.60
2017-11-26T15:58:02.453Z,5.60
2017-11-26T16:00:30.001Z,5.60
2017-11-26T16:02:57.550Z,5.60
2017-11-26T16:05:25.140Z,5.60
2017-11-26T16:07:52.712Z,5.60
2017-11-26T16:10:20.290Z,5.60
2017-11-26T16:12:47.884Z,5.60
2017-11-26T16:15:15.444Z,5.60
2017-11-26T16:17:43.001Z,5.60
2017-11-26T16:20:10.741Z,5.70
2017-11-26T16:22:39.059Z,5.70
2017-11-26T16:25:06.613Z,5.60
2017-11-26T16:27:34.330Z,5.70
2017-11-26T16:30:01.873Z,5.60
2017-11-26T16:32:29.420Z,5.60
2017-11-26T16:34:57.873Z,5.70
2017-11-26T16:37:25.413Z,5.60
2017-11-26T16:39:52.957Z,5.70
2017-11-26T16:42:20.653Z,5.70
2017-11-26T16:44:48.189Z,5.70
2017-11-26T16:47:16.503Z,5.60
2017-11-26T16:49:44.199Z,5.70
2017-11-26T16:52:11.749Z,5.70
2017-11-26T16:54:39.316Z,5.70
2017-11-26T16:57:06.912Z,5.70
2017-11-26T16:59:34.476Z,5.70
2017-11-26T17:02:02.030Z,5.70
2017-11-26T17:04:29.720Z,5.70
2017-11-26T17:06:57.287Z,5.70
2017-11-26T17:09:24.844Z,5.70
2017-11-26T17:11:52.429Z,5.70
2017-11-26T17:14:19.973Z,5.70
2017-11-26T17:16:47.524Z,5.70
2017-11-26T17:19:15.120Z,5.60
2017-11-26T17:21:42.670Z,5.70
2017-11-26T17:24:10.984Z,5.70
2017-11-26T17:26:38.704Z,5.60
2017-11-26T17:29:06.247Z,5.70
2017-11-26T17:31:33.789Z,5.70
2017-11-26T17:34:02.149Z,5.70
2017-11-26T17:36:29.697Z,5.70
2017-11-26T17:38:57.236Z,5.70
2017-11-26T17:41:24.924Z,5.70
2017-11-26T17:43:52.552Z,5.70
2017-11-26T17:46:20.120Z,5.70
2017-11-26T17:48:48.516Z,5.70
2017-11-26T17:51:16.840Z,5.90
2017-11-26T17:53:44.380Z,5.90
2017-11-26T17:56:12.932Z,6.30
2017-11-26T17:58:40.492Z,6.20
2017-11-26T18:01:08.035Z,6.40
2017-11-26T18:03:35.645Z,6.60
2017-11-26T18:06:03.193Z,6.70
2017-11-26T18:08:30.742Z,6.70
2017-11-26T18:10:59.294Z,6.40
2017-11-26T18:13:26.845Z,6.40
2017-11-26T18:15:54.388Z,6.30
2017-11-26T18:18:22.122Z,6.10
2017-11-26T18:20:49.668Z,6.00
2017-11-26T18:23:17.227Z,5.90
2017-11-26T18:25:45.041Z,5.90
2017-11-26T18:28:12.588Z,5.80
2017-11-26T18:30:40.150Z,5.80
2017-11-26T18:33:07.740Z,5.80
2017-11-26T18:35:35.303Z,5.80
2017-11-26T18:38:02.849Z,5.70
2017-11-26T18:40:30.601Z,5.80
2017-11-26T18:42:58.920Z,5.80
2017-11-26T18:45:29.519Z,5.80
2017-11-26T18:47:57.316Z,5.80
2017-11-26T18:50:25.734Z,5.80
2017-11-26T18:52:53.284Z,5.80
2017-11-26T18:55:20.917Z,5.70
2017-11-26T18:57:48.468Z,5.70
2017-11-26T19:00:16.035Z,5.70
2017-11-26T19:02:43.629Z,5.80
2017-11-26T19:05:11.176Z,5.80
2017-11-26T19:07:38.729Z,5.80
2017-11-26T19:10:06.353Z,5.70
2017-11-26T19:12:33.900Z,5.70
2017-11-26T19:15:01.445Z,5.70
2017-11-26T19:17:29.165Z,5.70
2017-11-26T19:19:56.716Z,5.70
2017-11-26T19:22:24.261Z,5.60
2017-11-26T19:24:51.972Z,5.60
2017-11-26T19:27:19.518Z,5.60
2017-11-26T19:29:47.069Z,5.60
2017-11-26T19:32:14.665Z,5.60
2017-11-26T19:34:42.208Z,5.60
2017-11-26T19:37:09.758Z,5.60
2017-11-26T19:39:38.264Z,5.60
2017-11-26T19:42:05.816Z,5.60
2017-11-26T19:44:34.124Z,5.50
2017-11-26T19:47:01.948Z,5.50
2017-11-26T19:49:29.500Z,5.60
2017-11-26T19:51:57.052Z,5.50
2017-11-26T19:54:24.696Z,5.60
2017-11-26T19:56:53.005Z,5.50
2017-11-26T19:59:20.600Z,5.50
2017-11-26T20:01:48.341Z,5.50
2017-11-26T20:04:16.659Z,5.50
2017-11-26T20:06:44.223Z,5.50
2017-11-26T20:09:11.962Z,5.40
2017-11-26T20:11:41.666Z,5.40
2017-11-26T20:14:09.230Z,5.40
2017-11-26T20:16:38.269Z,5.30
2017-11-26T20:19:06.841Z,5.30
2017-11-26T20:21:34.387Z,5.30
2017-11-26T20:24:04.756Z,5.40
2017-11-26T20:26:32.548Z,5.40
2017-11-26T20:29:01.440Z,5.40
2017-11-26T20:31:29.571Z,5.30
2017-11-26T20:33:58.389Z,5.40
2017-11-26T20:36:26.161Z,5.30
2017-11-26T20:38:53.926Z,5.40
2017-11-26T20:41:22.170Z,5.60
2017-11-26T20:43:50.313Z,5.80
2017-11-26T20:46:17.919Z,5.90
2017-11-26T20:48:45.473Z,6.00
2017-11-26T20:51:13.021Z,6.10
2017-11-26T20:53:40.650Z,6.20
2017-11-26T20:56:08.966Z,6.10
2017-11-26T20:58:36.509Z,6.00
2017-11-26T21:01:04.872Z,5.70
2017-11-26T21:03:32.425Z,5.70
2017-11-26T21:05:59.972Z,5.50
2017-11-26T21:08:27.992Z,5.40
2017-11-26T21:10:56.336Z,5.10
2017-11-26T21:13:23.881Z,5.10
2017-11-26T21:15:51.508Z,5.00
2017-11-26T21:18:19.059Z,5.00
2017-11-26T21:20:46.977Z,4.80
2017-11-26T21:23:15.469Z,4.70
2017-11-26T21:25:43.078Z,4.70
2017-11-26T21:28:11.396Z,4.60
2017-11-26T21:30:39.192Z,4.60
2017-11-26T21:33:06.740Z,4.50
2017-11-26T21:35:34.292Z,4.50
2017-11-26T21:38:02.113Z,4.40
2017-11-26T21:40:29.656Z,4.40
2017-11-26T21:42:57.205Z,4.30
2017-11-26T21:45:25.566Z,4.40
2017-11-26T21:47:53.116Z,4.40
2017-11-26T21:50:20.677Z,4.40
2017-11-26T21:52:48.273Z,4.50
2017-11-26T21:55:15.825Z,4.50
2017-11-26T21:57:43.381Z,4.50
2017-11-26T22:00:11.172Z,4.50
2017-11-26T22:02:38.728Z,4.50
2017-11-26T22:05:06.273Z,4.50
2017-11-26T22:07:33.872Z,4.40
2017-11-26T22:10:01.431Z,4.40
2017-11-26T22:12:28.984Z,4.50
2017-11-26T22:14:56.731Z,4.50
2017-11-26T22:17:24.283Z,4.50
2017-11-26T22:19:51.844Z,4.50
2017-11-26T22:22:19.626Z,4.60
2017-11-26T22:24:47.173Z,4.60
2017-11-26T22:27:14.716Z,4.70
2017-11-26T22:29:43.073Z,4.70
2017-11-26T22:32:10.853Z,4.60
2017-11-26T22:34:38.400Z,4.70
2017-11-26T22:37:05.997Z,4.70
2017-11-26T22:39:33.553Z,4.70
2017-11-26T22:42:01.104Z,4.60
2017-11-26T22:44:28.702Z,4.60
2017-11-26T22:46:57.769Z,4.50
2017-11-26T22:49:25.329Z,4.50
2017-11-26T22:51:52.925Z,4.40
2017-11-26T22:54:20.489Z,4.40
2017-11-26T22:56:48.043Z,4.40
2017-11-26T22:59:15.637Z,4.30
2017-11-26T23:01:43.185Z,4.20
2017-11-26T23:04:10.737Z,4.20
2017-11-26T23:06:39.278Z,4.20
2017-11-26T23:09:06.821Z,4.20
2017-11-26T23:11:34.372Z,4.20
2017-11-26T23:14:02.737Z,4.30
2017-11-26T23:16:31.845Z,4.30
2017-11-26T23:18:59.422Z,4.30
2017-11-26T23:26:04.604Z,4.30
2017-11-26T23:28:32.214Z,4.30
2017-11-26T23:31:00.533Z,4.30
2017-11-26T23:33:28.076Z,4.30
2017-11-26T23:35:56.429Z,4.20
2017-11-26T23:38:23.973Z,4.20
2017-11-26T23:40:51.529Z,4.20
2017-11-26T23:43:19.240Z,4.20
2017-11-26T23:45:46.790Z,4.10
2017-11-26T23:48:14.373Z,4.10
2017-11-26T23:50:41.980Z,4.10
2017-11-26T23:53:09.531Z,4.10
2017-11-26T23:55:37.089Z,4.10
2017-11-26T23:58:04.700Z,4.10
